Terminal Aerodrome Forecast
Issued by NWS Greer, SC

Current Version | Previous Version | Text Only | Print | Product List | Glossary On
Versions: 1 2 3 4 5 6 7 8 9 10 11 12 13 14 15 16 17 18 19 20 21 22 23 24 25 26 27 28 29 30 31 32 33 34 35 36 37 38 39
000
FTUS42 KGSP 220500
TAFAVL
TAF
KAVL 220539Z 2206/2306 00000KT P6SM OVC110
     FM220900 00000KT 5SM BR SCT110
     FM221300 33005KT P6SM FEW050 SCT120
     FM222100 29005KT P6SM SCT060 PROB30 2221/2303 4SM TSRA BKN040CB
     FM230300 33003KT P6SM BKN040=

USA.gov is the U.S. government's official web portal to all federal, state and local government web resources and services.